sensor_id;sensor_type;location;lat;lon;timestamp;pressure;altitude;pressure_sealevel;temperature;humidity
7309;BME280;3695;53.330;9.876;2022-07-23T00:02:26;113242.69;;;15.96;60.58
7309;BME280;3695;53.330;9.876;2022-07-23T00:04:53;113328.63;;;15.95;61.32
7309;BME280;3695;53.330;9.876;2022-07-23T00:07:19;113027.59;;;15.88;61.30
7309;BME280;3695;53.330;9.876;2022-07-23T00:09:46;113909.16;;;16.12;61.21
7309;BME280;3695;53.330;9.876;2022-07-23T00:12:12;113403.78;;;16.00;61.07
7309;BME280;3695;53.330;9.876;2022-07-23T00:14:39;113596.06;;;16.06;60.63
7309;BME280;3695;53.330;9.876;2022-07-23T00:17:06;112728.59;;;15.85;60.40
7309;BME280;3695;53.330;9.876;2022-07-23T00:19:34;113744.50;;;16.12;59.91
7309;BME280;3695;53.330;9.876;2022-07-23T00:22:00;113544.78;;;16.05;60.42
7309;BME280;3695;53.330;9.876;2022-07-23T00:24:27;114168.56;;;16.23;60.08
7309;BME280;3695;53.330;9.876;2022-07-23T00:26:54;113150.28;;;15.93;61.31
7309;BME280;3695;53.330;9.876;2022-07-23T00:29:20;112352.78;;;15.77;60.70
7309;BME280;3695;53.330;9.876;2022-07-23T00:31:47;112808.22;;;15.89;60.10
7309;BME280;3695;53.330;9.876;2022-07-23T00:34:13;112757.94;;;15.89;59.78
7309;BME280;3695;53.330;9.876;2022-07-23T00:36:41;111737.69;;;15.67;59.37
7309;BME280;3695;53.330;9.876;2022-07-23T00:39:08;111762.41;;;15.72;58.54
7309;BME280;3695;53.330;9.876;2022-07-23T00:41:34;112612.69;;;15.93;58.23
7309;BME280;3695;53.330;9.876;2022-07-23T00:44:14;112130.75;;;15.82;58.26
7309;BME280;3695;53.330;9.876;2022-07-23T00:46:45;111634.47;;;15.69;58.22
7309;BME280;3695;53.330;9.876;2022-07-23T00:49:11;112379.47;;;15.89;57.97
7309;BME280;3695;53.330;9.876;2022-07-23T00:51:38;112001.84;;;15.77;58.36
7309;BME280;3695;53.330;9.876;2022-07-23T00:54:06;112860.59;;;16.00;58.29
7309;BME280;3695;53.330;9.876;2022-07-23T00:56:32;112968.56;;;16.02;58.58
7309;BME280;3695;53.330;9.876;2022-07-23T00:59:00;113231.31;;;16.11;58.62
7309;BME280;3695;53.330;9.876;2022-07-23T01:01:26;112635.53;;;15.94;59.00
7309;BME280;3695;53.330;9.876;2022-07-23T01:03:53;112180.13;;;15.83;58.85
7309;BME280;3695;53.330;9.876;2022-07-23T01:06:19;111653.63;;;15.68;59.04
7309;BME280;3695;53.330;9.876;2022-07-23T01:08:46;111124.69;;;15.60;58.58
7309;BME280;3695;53.330;9.876;2022-07-23T01:11:14;110838.81;;;15.55;58.25
7309;BME280;3695;53.330;9.876;2022-07-23T01:13:41;110648.00;;;15.50;58.12
7309;BME280;3695;53.330;9.876;2022-07-23T01:16:07;110470.03;;;15.45;58.02
7309;BME280;3695;53.330;9.876;2022-07-23T01:18:33;110630.66;;;15.49;57.34
7309;BME280;3695;53.330;9.876;2022-07-23T01:21:00;110057.53;;;15.36;57.01
7309;BME280;3695;53.330;9.876;2022-07-23T01:23:28;110496.47;;;15.49;56.38
7309;BME280;3695;53.330;9.876;2022-07-23T01:25:55;110647.09;;;15.52;56.30
7309;BME280;3695;53.330;9.876;2022-07-23T01:28:21;110473.66;;;15.47;56.16
7309;BME280;3695;53.330;9.876;2022-07-23T01:30:48;108990.56;;;15.15;56.31
7309;BME280;3695;53.330;9.876;2022-07-23T01:33:15;108080.50;;;14.92;55.75
7309;BME280;3695;53.330;9.876;2022-07-23T01:35:41;108441.13;;;15.01;54.96
7309;BME280;3695;53.330;9.876;2022-07-23T01:38:08;107962.03;;;14.92;54.59
7309;BME280;3695;53.330;9.876;2022-07-23T01:40:37;108835.56;;;15.12;54.26
7309;BME280;3695;53.330;9.876;2022-07-23T01:43:04;108616.78;;;15.09;54.10
7309;BME280;3695;53.330;9.876;2022-07-23T01:45:31;108139.56;;;14.96;54.11
7309;BME280;3695;53.330;9.876;2022-07-23T01:47:57;107792.56;;;14.90;53.99
7309;BME280;3695;53.330;9.876;2022-07-23T01:50:24;108035.56;;;14.98;53.79
7309;BME280;3695;53.330;9.876;2022-07-23T01:52:50;108297.94;;;15.02;53.71
7309;BME280;3695;53.330;9.876;2022-07-23T01:55:17;109008.66;;;15.19;53.66
7309;BME280;3695;53.330;9.876;2022-07-23T01:57:45;109177.38;;;15.20;53.77
7309;BME280;3695;53.330;9.876;2022-07-23T02:00:12;109731.78;;;15.33;53.87
7309;BME280;3695;53.330;9.876;2022-07-23T02:02:39;108173.41;;;14.94;54.13
7309;BME280;3695;53.330;9.876;2022-07-23T02:05:05;107646.03;;;14.86;54.05
7309;BME280;3695;53.330;9.876;2022-07-23T02:07:32;107466.75;;;14.82;53.99
7309;BME280;3695;53.330;9.876;2022-07-23T02:09:58;106590.00;;;14.59;53.88
7309;BME280;3695;53.330;9.876;2022-07-23T02:12:25;106602.69;;;14.60;53.65
7309;BME280;3695;53.330;9.876;2022-07-23T02:14:53;106535.56;;;14.56;53.52
7309;BME280;3695;53.330;9.876;2022-07-23T02:17:19;106502.88;;;14.54;53.42
7309;BME280;3695;53.330;9.876;2022-07-23T02:19:46;106829.44;;;14.60;53.35
7309;BME280;3695;53.330;9.876;2022-07-23T02:22:12;107355.34;;;14.70;53.34
7309;BME280;3695;53.330;9.876;2022-07-23T02:24:39;106175.09;;;14.41;53.43
7309;BME280;3695;53.330;9.876;2022-07-23T02:27:05;106701.44;;;14.54;53.28
7309;BME280;3695;53.330;9.876;2022-07-23T02:29:32;106964.31;;;14.59;53.27
7309;BME280;3695;53.330;9.876;2022-07-23T02:31:59;107453.91;;;14.67;53.31
7309;BME280;3695;53.330;9.876;2022-07-23T02:34:26;106579.31;;;14.41;53.47
7309;BME280;3695;53.330;9.876;2022-07-23T02:36:52;106591.81;;;14.45;53.50
7309;BME280;3695;53.330;9.876;2022-07-23T02:39:19;105326.25;;;14.16;53.57
7309;BME280;3695;53.330;9.876;2022-07-23T02:41:45;104972.59;;;14.04;53.43
7309;BME280;3695;53.330;9.876;2022-07-23T02:44:12;104728.50;;;13.98;53.26
7309;BME280;3695;53.330;9.876;2022-07-23T02:46:38;105761.75;;;14.20;53.03
7309;BME280;3695;53.330;9.876;2022-07-23T02:49:06;105887.31;;;14.20;53.01
7309;BME280;3695;53.330;9.876;2022-07-23T02:51:33;106363.44;;;14.30;53.00
7309;BME280;3695;53.330;9.876;2022-07-23T02:53:59;105333.75;;;14.03;53.12
7309;BME280;3695;53.330;9.876;2022-07-23T02:56:26;105100.53;;;13.97;53.11
7309;BME280;3695;53.330;9.876;2022-07-23T02:58:52;105419.22;;;14.03;53.01
7309;BME280;3695;53.330;9.876;2022-07-23T03:01:18;105486.56;;;14.03;52.96
7309;BME280;3695;53.330;9.876;2022-07-23T03:03:45;105112.84;;;13.92;53.01
7309;BME280;3695;53.330;9.876;2022-07-23T03:06:13;104791.81;;;13.82;52.95
7309;BME280;3695;53.330;9.876;2022-07-23T03:08:40;105490.53;;;13.99;52.80
7309;BME280;3695;53.330;9.876;2022-07-23T03:11:06;106113.66;;;14.10;52.78
7309;BME280;3695;53.330;9.876;2022-07-23T03:13:36;105564.59;;;13.94;52.81
7309;BME280;3695;53.330;9.876;2022-07-23T03:16:03;105501.97;;;13.93;52.80
7309;BME280;3695;53.330;9.876;2022-07-23T03:18:29;105807.81;;;14.01;52.77
7309;BME280;3695;53.330;9.876;2022-07-23T03:20:56;105865.13;;;14.01;52.80
7309;BME280;3695;53.330;9.876;2022-07-23T03:23:24;105930.63;;;14.01;52.87
7309;BME280;3695;53.330;9.876;2022-07-23T03:25:50;105751.00;;;13.95;52.96
7309;BME280;3695;53.330;9.876;2022-07-23T03:28:17;105783.72;;;13.95;53.03
7309;BME280;3695;53.330;9.876;2022-07-23T03:30:44;105938.91;;;13.99;53.05
7309;BME280;3695;53.330;9.876;2022-07-23T03:33:11;105634.66;;;13.94;53.07
7309;BME280;3695;53.330;9.876;2022-07-23T03:35:38;105157.28;;;13.82;53.07
7309;BME280;3695;53.330;9.876;2022-07-23T03:38:04;105992.41;;;14.02;53.01
7309;BME280;3695;53.330;9.876;2022-07-23T03:40:32;105860.88;;;13.97;53.06
7309;BME280;3695;53.330;9.876;2022-07-23T03:42:59;106593.78;;;14.15;53.02
7309;BME280;3695;53.330;9.876;2022-07-23T03:45:25;106543.88;;;14.13;53.08
7309;BME280;3695;53.330;9.876;2022-07-23T03:47:52;107208.25;;;14.29;53.10
7309;BME280;3695;53.330;9.876;2022-07-23T03:50:18;107989.78;;;14.43;53.26
7309;BME280;3695;53.330;9.876;2022-07-23T03:52:45;108437.50;;;14.54;53.38
7309;BME280;3695;53.330;9.876;2022-07-23T03:55:11;109313.66;;;14.72;53.56
7309;BME280;3695;53.330;9.876;2022-07-23T03:57:39;109490.56;;;14.70;53.98
7309;BME280;3695;53.330;9.876;2022-07-23T04:00:08;109445.00;;;14.69;54.32
7309;BME280;3695;53.330;9.876;2022-07-23T04:02:35;108313.16;;;14.42;54.70
7309;BME280;3695;53.330;9.876;2022-07-23T04:05:01;109528.78;;;14.73;54.72
7309;BME280;3695;53.330;9.876;2022-07-23T04:07:28;110072.03;;;14.83;55.21
7309;BME280;3695;53.330;9.876;2022-07-23T04:09:54;110047.44;;;14.80;55.89
7309;BME280;3695;53.330;9.876;2022-07-23T04:12:21;108820.34;;;14.49;56.58
7309;BME280;3695;53.330;9.876;2022-07-23T04:14:49;109098.84;;;14.60;56.52
7309;BME280;3695;53.330;9.876;2022-07-23T04:17:16;109099.81;;;14.58;56.99
7309;BME280;3695;53.330;9.876;2022-07-23T04:19:42;109534.31;;;14.70;57.29
7309;BME280;3695;53.330;9.876;2022-07-23T04:22:09;109144.38;;;14.61;57.53
7309;BME280;3695;53.330;9.876;2022-07-23T04:24:36;108744.69;;;14.50;58.11
7309;BME280;3695;53.330;9.876;2022-07-23T04:27:03;109166.16;;;14.64;57.98
7309;BME280;3695;53.330;9.876;2022-07-23T04:29:30;110300.84;;;14.90;58.16
7309;BME280;3695;53.330;9.876;2022-07-23T04:31:58;110045.59;;;14.82;59.05
7309;BME280;3695;53.330;9.876;2022-07-23T04:34:24;109739.31;;;14.76;59.56
7309;BME280;3695;53.330;9.876;2022-07-23T04:36:52;110401.13;;;14.96;59.33
7309;BME280;3695;53.330;9.876;2022-07-23T04:39:18;109988.13;;;14.82;60.27
7309;BME280;3695;53.330;9.876;2022-07-23T04:41:44;110367.44;;;14.91;60.68
7309;BME280;3695;53.330;9.876;2022-07-23T04:44:11;108940.38;;;14.57;61.54
7309;BME280;3695;53.330;9.876;2022-07-23T04:46:37;109381.97;;;14.75;60.48
7309;BME280;3695;53.330;9.876;2022-07-23T04:49:06;109537.78;;;14.78;60.57
7309;BME280;3695;53.330;9.876;2022-07-23T04:51:32;109517.72;;;14.77;60.66
7309;BME280;3695;53.330;9.876;2022-07-23T04:53:59;108312.91;;;14.48;61.01
7309;BME280;3695;53.330;9.876;2022-07-23T04:56:25;108116.28;;;14.45;60.32
7309;BME280;3695;53.330;9.876;2022-07-23T04:58:52;109763.69;;;14.88;59.02
7309;BME280;3695;53.330;9.876;2022-07-23T05:01:18;109482.16;;;14.79;59.44
7309;BME280;3695;53.330;9.876;2022-07-23T05:03:45;109274.34;;;14.76;59.39
7309;BME280;3695;53.330;9.876;2022-07-23T05:06:14;108409.22;;;14.55;59.57
7309;BME280;3695;53.330;9.876;2022-07-23T05:08:41;108889.91;;;14.69;58.82
7309;BME280;3695;53.330;9.876;2022-07-23T05:11:07;109813.81;;;14.90;58.64
7309;BME280;3695;53.330;9.876;2022-07-23T05:13:34;109554.09;;;14.83;59.04
7309;BME280;3695;53.330;9.876;2022-07-23T05:16:00;109386.41;;;14.79;59.28
7309;BME280;3695;53.330;9.876;2022-07-23T05:18:27;108898.19;;;14.66;59.73
7309;BME280;3695;53.330;9.876;2022-07-23T05:20:53;108292.72;;;14.53;60.08
7309;BME280;3695;53.330;9.876;2022-07-23T05:23:21;109828.38;;;14.92;59.45
7309;BME280;3695;53.330;9.876;2022-07-23T05:25:47;108738.84;;;14.61;60.89
7309;BME280;3695;53.330;9.876;2022-07-23T05:28:15;109767.34;;;14.89;60.64
7309;BME280;3695;53.330;9.876;2022-07-23T05:30:41;109618.75;;;14.87;60.76
7309;BME280;3695;53.330;9.876;2022-07-23T05:33:08;109910.47;;;14.92;61.42
7309;BME280;3695;53.330;9.876;2022-07-23T05:35:34;109331.00;;;14.71;63.55
7309;BME280;3695;53.330;9.876;2022-07-23T05:38:01;109598.75;;;14.83;63.97
7309;BME280;3695;53.330;9.876;2022-07-23T05:40:28;109575.06;;;14.82;64.62
7309;BME280;3695;53.330;9.876;2022-07-23T05:42:55;109514.06;;;14.78;65.89
7309;BME280;3695;53.330;9.876;2022-07-23T05:45:21;109613.38;;;14.82;66.42
7309;BME280;3695;53.330;9.876;2022-07-23T05:47:49;110525.13;;;15.02;67.58
7309;BME280;3695;53.330;9.876;2022-07-23T05:50:16;108965.63;;;14.65;69.83
7309;BME280;3695;53.330;9.876;2022-07-23T05:52:43;109532.22;;;14.83;69.17
7309;BME280;3695;53.330;9.876;2022-07-23T05:55:10;110433.91;;;15.03;69.57
7309;BME280;3695;53.330;9.876;2022-07-23T05:57:39;111727.22;;;15.31;70.96
7309;BME280;3695;53.330;9.876;2022-07-23T06:00:08;110373.78;;;14.94;75.67
7309;BME280;3695;53.330;9.876;2022-07-23T06:02:35;111052.50;;;15.12;76.79
7309;BME280;3695;53.330;9.876;2022-07-23T06:05:01;110577.19;;;14.98;81.68
7309;BME280;3695;53.330;9.876;2022-07-23T06:07:28;109927.94;;;14.84;84.01
7309;BME280;3695;53.330;9.876;2022-07-23T06:09:54;109980.75;;;14.89;84.81
7309;BME280;3695;53.330;9.876;2022-07-23T06:12:21;110328.13;;;14.98;85.28
7309;BME280;3695;53.330;9.876;2022-07-23T06:14:49;111638.63;;;15.28;86.22
7309;BME280;3695;53.330;9.876;2022-07-23T06:17:17;112243.38;;;15.44;88.31
7309;BME280;3695;53.330;9.876;2022-07-23T06:19:43;113399.00;;;15.67;91.90
7309;BME280;3695;53.330;9.876;2022-07-23T06:22:10;113257.06;;;15.60;100.00
7309;BME280;3695;53.330;9.876;2022-07-23T06:24:36;113004.72;;;15.57;100.00
7309;BME280;3695;53.330;9.876;2022-07-23T06:27:04;114646.66;;;15.97;100.00
7309;BME280;3695;53.330;9.876;2022-07-23T06:29:30;114433.00;;;15.87;100.00
7309;BME280;3695;53.330;9.876;2022-07-23T06:31:58;114693.91;;;15.91;100.00
7309;BME280;3695;53.330;9.876;2022-07-23T06:34:25;114312.69;;;15.77;100.00
7309;BME280;3695;53.330;9.876;2022-07-23T06:36:51;113707.81;;;15.64;100.00
7309;BME280;3695;53.330;9.876;2022-07-23T06:39:18;115008.91;;;15.97;100.00
7309;BME280;3695;53.330;9.876;2022-07-23T06:41:45;116657.00;;;16.40;100.00
7309;BME280;3695;53.330;9.876;2022-07-23T06:44:11;117159.19;;;16.42;100.00
7309;BME280;3695;53.330;9.876;2022-07-23T06:46:38;117782.75;;;16.56;100.00
7309;BME280;3695;53.330;9.876;2022-07-23T06:49:05;116284.28;;;16.17;100.00
7309;BME280;3695;53.330;9.876;2022-07-23T06:51:32;116328.09;;;16.15;100.00
7309;BME280;3695;53.330;9.876;2022-07-23T06:53:58;116052.16;;;16.10;100.00
7309;BME280;3695;53.330;9.876;2022-07-23T06:56:25;115414.09;;;15.95;100.00
7309;BME280;3695;53.330;9.876;2022-07-23T06:58:51;116133.94;;;16.14;100.00
7309;BME280;3695;53.330;9.876;2022-07-23T07:01:18;116059.56;;;16.11;100.00
7309;BME280;3695;53.330;9.876;2022-07-23T07:03:45;114348.91;;;15.69;100.00
7309;BME280;3695;53.330;9.876;2022-07-23T07:06:14;114704.38;;;15.82;100.00
7309;BME280;3695;53.330;9.876;2022-07-23T07:08:41;114988.50;;;15.92;100.00
7309;BME280;3695;53.330;9.876;2022-07-23T07:11:08;116407.31;;;16.32;100.00
7309;BME280;3695;53.330;9.876;2022-07-23T07:13:34;115509.75;;;16.02;100.00
7309;BME280;3695;53.330;9.876;2022-07-23T07:16:01;117446.66;;;16.59;100.00
7309;BME280;3695;53.330;9.876;2022-07-23T07:18:27;117979.94;;;16.66;100.00
7309;BME280;3695;53.330;9.876;2022-07-23T07:20:54;117087.31;;;16.37;100.00
7309;BME280;3695;53.330;9.876;2022-07-23T07:23:22;117414.13;;;16.45;100.00
7309;BME280;3695;53.330;9.876;2022-07-23T07:25:48;118207.38;;;16.67;100.00
7309;BME280;3695;53.330;9.876;2022-07-23T07:28:15;120109.88;;;17.19;100.00
7309;BME280;3695;53.330;9.876;2022-07-23T07:30:42;119053.06;;;16.78;100.00
7309;BME280;3695;53.330;9.876;2022-07-23T07:33:08;121195.13;;;17.37;100.00
7309;BME280;3695;53.330;9.876;2022-07-23T07:35:35;120417.63;;;17.07;100.00
7309;BME280;3695;53.330;9.876;2022-07-23T07:38:01;120085.50;;;16.95;100.00
7309;BME280;3695;53.330;9.876;2022-07-23T07:40:29;120569.72;;;17.12;100.00
7309;BME280;3695;53.330;9.876;2022-07-23T07:42:56;119468.16;;;16.75;100.00
7309;BME280;3695;53.330;9.876;2022-07-23T07:45:23;120091.56;;;16.92;100.00
7309;BME280;3695;53.330;9.876;2022-07-23T07:47:50;118561.34;;;16.52;100.00
7309;BME280;3695;53.330;9.876;2022-07-23T07:50:17;118723.72;;;16.61;100.00
7309;BME280;3695;53.330;9.876;2022-07-23T07:52:44;118992.06;;;16.66;100.00
7309;BME280;3695;53.330;9.876;2022-07-23T07:55:11;118250.13;;;16.48;100.00
7309;BME280;3695;53.330;9.876;2022-07-23T07:57:39;119911.09;;;16.94;100.00
7309;BME280;3695;53.330;9.876;2022-07-23T08:00:08;119935.84;;;16.94;100.00
7309;BME280;3695;53.330;9.876;2022-07-23T08:02:40;119056.50;;;16.68;100.00
7309;BME280;3695;53.330;9.876;2022-07-23T08:05:08;119961.41;;;16.93;100.00
7309;BME280;3695;53.330;9.876;2022-07-23T08:07:34;119568.97;;;16.81;100.00
7309;BME280;3695;53.330;9.876;2022-07-23T08:10:01;118858.47;;;16.61;100.00
7309;BME280;3695;53.330;9.876;2022-07-23T08:12:27;119248.66;;;16.72;100.00
7309;BME280;3695;53.330;9.876;2022-07-23T08:14:55;120290.84;;;17.00;100.00
7309;BME280;3695;53.330;9.876;2022-07-23T08:17:21;121136.50;;;17.20;100.00
7309;BME280;3695;53.330;9.876;2022-07-23T08:19:48;120862.22;;;17.09;100.00
7309;BME280;3695;53.330;9.876;2022-07-23T08:22:14;121739.06;;;17.32;100.00
7309;BME280;3695;53.330;9.876;2022-07-23T08:24:41;120444.38;;;16.95;100.00
7309;BME280;3695;53.330;9.876;2022-07-23T08:27:07;120494.38;;;16.98;100.00
7309;BME280;3695;53.330;9.876;2022-07-23T08:29:34;122877.19;;;17.67;100.00
7309;BME280;3695;53.330;9.876;2022-07-23T08:32:02;123032.34;;;17.66;100.00
7309;BME280;3695;53.330;9.876;2022-07-23T08:34:28;122800.25;;;17.53;100.00
7309;BME280;3695;53.330;9.876;2022-07-23T08:36:55;122853.66;;;17.53;100.00
7309;BME280;3695;53.330;9.876;2022-07-23T08:39:21;122535.63;;;17.38;100.00
7309;BME280;3695;53.330;9.876;2022-07-23T08:41:48;123075.56;;;17.55;100.00
7309;BME280;3695;53.330;9.876;2022-07-23T08:44:16;123235.34;;;17.59;100.00
7309;BME280;3695;53.330;9.876;2022-07-23T08:46:43;123793.75;;;17.75;100.00
7309;BME280;3695;53.330;9.876;2022-07-23T08:49:12;124461.69;;;17.85;100.00
7309;BME280;3695;53.330;9.876;2022-07-23T08:51:39;124203.19;;;17.76;100.00
7309;BME280;3695;53.330;9.876;2022-07-23T08:54:06;124835.69;;;17.87;100.00
7309;BME280;3695;53.330;9.876;2022-07-23T08:56:33;124937.81;;;17.87;100.00
7309;BME280;3695;53.330;9.876;2022-07-23T08:59:01;126198.06;;;18.20;100.00
7309;BME280;3695;53.330;9.876;2022-07-23T09:01:27;124662.44;;;17.72;100.00
7309;BME280;3695;53.330;9.876;2022-07-23T09:03:53;125566.56;;;18.00;100.00
7309;BME280;3695;53.330;9.876;2022-07-23T09:06:21;126802.69;;;18.33;100.00
7309;BME280;3695;53.330;9.876;2022-07-23T09:08:48;126846.16;;;18.26;100.00
7309;BME280;3695;53.330;9.876;2022-07-23T09:11:16;126986.81;;;18.29;100.00
7309;BME280;3695;53.330;9.876;2022-07-23T09:13:48;126908.66;;;18.21;100.00
7309;BME280;3695;53.330;9.876;2022-07-23T09:16:15;127998.31;;;18.52;100.00
7309;BME280;3695;53.330;9.876;2022-07-23T09:18:46;127471.63;;;18.29;100.00
7309;BME280;3695;53.330;9.876;2022-07-23T09:21:23;128327.38;;;18.59;100.00
7309;BME280;3695;53.330;9.876;2022-07-23T09:23:53;126263.94;;;17.94;100.00
7309;BME280;3695;53.330;9.876;2022-07-23T09:26:32;126236.38;;;17.98;100.00
7309;BME280;3695;53.330;9.876;2022-07-23T09:29:05;125405.88;;;17.81;100.00
7309;BME280;3695;53.330;9.876;2022-07-23T09:31:46;125783.72;;;17.96;100.00
7309;BME280;3695;53.330;9.876;2022-07-23T09:34:16;125115.28;;;17.82;100.00
7309;BME280;3695;53.330;9.876;2022-07-23T09:36:45;125336.06;;;17.90;100.00
7309;BME280;3695;53.330;9.876;2022-07-23T09:39:13;126778.88;;;18.34;100.00
7309;BME280;3695;53.330;9.876;2022-07-23T09:41:41;127690.25;;;18.52;100.00
7309;BME280;3695;53.330;9.876;2022-07-23T09:44:13;125891.75;;;17.97;100.00
7309;BME280;3695;53.330;9.876;2022-07-23T09:46:40;125592.16;;;17.91;100.00
7309;BME280;3695;53.330;9.876;2022-07-23T09:49:16;126037.84;;;18.04;100.00
7309;BME280;3695;53.330;9.876;2022-07-23T09:51:49;125824.81;;;18.02;100.00
7309;BME280;3695;53.330;9.876;2022-07-23T09:54:28;126087.91;;;18.05;100.00
7309;BME280;3695;53.330;9.876;2022-07-23T09:56:57;126546.59;;;18.17;100.00
7309;BME280;3695;53.330;9.876;2022-07-23T09:59:25;126393.22;;;18.15;100.00
7309;BME280;3695;53.330;9.876;2022-07-23T10:01:53;126245.31;;;17.97;100.00
7309;BME280;3695;53.330;9.876;2022-07-23T10:04:22;126092.69;;;17.90;100.00
7309;BME280;3695;53.330;9.876;2022-07-23T10:06:52;126424.22;;;17.98;100.00
7309;BME280;3695;53.330;9.876;2022-07-23T10:09:23;127141.13;;;18.19;100.00
7309;BME280;3695;53.330;9.876;2022-07-23T10:11:52;127980.56;;;18.48;100.00
7309;BME280;3695;53.330;9.876;2022-07-23T10:14:21;126514.38;;;18.02;100.00
7309;BME280;3695;53.330;9.876;2022-07-23T10:16:47;124986.53;;;17.60;100.00
7309;BME280;3695;53.330;9.876;2022-07-23T10:19:14;125007.19;;;17.67;100.00
7309;BME280;3695;53.330;9.876;2022-07-23T10:21:45;124360.56;;;17.58;100.00
7309;BME280;3695;53.330;9.876;2022-07-23T10:24:23;123665.47;;;17.44;100.00
7309;BME280;3695;53.330;9.876;2022-07-23T10:27:02;124000.03;;;17.62;100.00
7309;BME280;3695;53.330;9.876;2022-07-23T10:29:42;125392.53;;;18.04;100.00
7309;BME280;3695;53.330;9.876;2022-07-23T10:32:19;123006.03;;;17.37;100.00
7309;BME280;3695;53.330;9.876;2022-07-23T10:34:52;125921.41;;;18.22;100.00
7309;BME280;3695;53.330;9.876;2022-07-23T10:37:29;126308.28;;;18.31;100.00
7309;BME280;3695;53.330;9.876;2022-07-23T10:40:12;126943.47;;;18.44;100.00
7309;BME280;3695;53.330;9.876;2022-07-23T10:42:40;128399.22;;;18.87;100.00
7309;BME280;3695;53.330;9.876;2022-07-23T10:45:31;126686.25;;;18.32;100.00
7309;BME280;3695;53.330;9.876;2022-07-23T10:48:12;127245.00;;;18.52;100.00
7309;BME280;3695;53.330;9.876;2022-07-23T10:50:39;127687.13;;;18.65;100.00
7309;BME280;3695;53.330;9.876;2022-07-23T10:53:14;125035.16;;;17.86;100.00
7309;BME280;3695;53.330;9.876;2022-07-23T10:55:52;125366.38;;;17.94;100.00
7309;BME280;3695;53.330;9.876;2022-07-23T10:58:21;125751.25;;;18.07;100.00
7309;BME280;3695;53.330;9.876;2022-07-23T11:00:48;127388.88;;;18.56;100.00
7309;BME280;3695;53.330;9.876;2022-07-23T11:03:32;126700.06;;;18.32;100.00
7309;BME280;3695;53.330;9.876;2022-07-23T11:06:01;128021.88;;;18.65;100.00
7309;BME280;3695;53.330;9.876;2022-07-23T11:08:28;128046.63;;;18.61;100.00
7309;BME280;3695;53.330;9.876;2022-07-23T11:11:09;129424.72;;;19.05;100.00
7309;BME280;3695;53.330;9.876;2022-07-23T11:13:38;129038.81;;;18.91;100.00
7309;BME280;3695;53.330;9.876;2022-07-23T11:16:13;130783.31;;;19.34;100.00
7309;BME280;3695;53.330;9.876;2022-07-23T11:19:03;130535.56;;;19.18;100.00
7309;BME280;3695;53.330;9.876;2022-07-23T11:22:00;129696.28;;;18.89;100.00
7309;BME280;3695;53.330;9.876;2022-07-23T11:24:26;129275.94;;;18.77;100.00
7309;BME280;3695;53.330;9.876;2022-07-23T11:26:57;129625.78;;;18.84;100.00
7309;BME280;3695;53.330;9.876;2022-07-23T11:29:43;129211.03;;;18.73;100.00
7309;BME280;3695;53.330;9.876;2022-07-23T11:35:25;130080.88;;;19.01;100.00
7309;BME280;3695;53.330;9.876;2022-07-23T11:37:54;129148.25;;;18.69;100.00
7309;BME280;3695;53.330;9.876;2022-07-23T11:40:24;128760.94;;;18.56;100.00
7309;BME280;3695;53.330;9.876;2022-07-23T11:42:54;128084.59;;;18.37;100.00
7309;BME280;3695;53.330;9.876;2022-07-23T11:45:22;130673.22;;;19.15;100.00
7309;BME280;3695;53.330;9.876;2022-07-23T11:47:48;128714.06;;;18.60;100.00
7309;BME280;3695;53.330;9.876;2022-07-23T11:50:15;130102.16;;;18.98;100.00
7309;BME280;3695;53.330;9.876;2022-07-23T11:52:41;131117.50;;;19.27;100.00
7309;BME280;3695;53.330;9.876;2022-07-23T11:55:10;130949.81;;;19.23;100.00
7309;BME280;3695;53.330;9.876;2022-07-23T11:57:37;131602.38;;;19.41;100.00
7309;BME280;3695;53.330;9.876;2022-07-23T12:00:08;129839.84;;;18.87;100.00
7309;BME280;3695;53.330;9.876;2022-07-23T12:02:36;131264.09;;;19.32;100.00
7309;BME280;3695;53.330;9.876;2022-07-23T12:05:04;130721.84;;;19.17;100.00
7309;BME280;3695;53.330;9.876;2022-07-23T12:07:32;131487.72;;;19.38;100.00
7309;BME280;3695;53.330;9.876;2022-07-23T12:10:02;130361.09;;;19.02;100.00
7309;BME280;3695;53.330;9.876;2022-07-23T12:12:35;130202.50;;;18.97;100.00
7309;BME280;3695;53.330;9.876;2022-07-23T12:15:03;131388.22;;;19.33;100.00
7309;BME280;3695;53.330;9.876;2022-07-23T12:17:33;130947.84;;;19.19;100.00
7309;BME280;3695;53.330;9.876;2022-07-23T12:20:01;131830.69;;;19.44;100.00
7309;BME280;3695;53.330;9.876;2022-07-23T12:22:34;131949.47;;;19.43;100.00
7309;BME280;3695;53.330;9.876;2022-07-23T12:25:05;133807.34;;;19.95;100.00
7309;BME280;3695;53.330;9.876;2022-07-23T12:27:32;133441.25;;;19.80;100.00
7309;BME280;3695;53.330;9.876;2022-07-23T12:29:58;131498.16;;;19.21;100.00
7309;BME280;3695;53.330;9.876;2022-07-23T12:32:27;132778.78;;;19.57;100.00
7309;BME280;3695;53.330;9.876;2022-07-23T12:35:04;132629.66;;;19.54;100.00
7309;BME280;3695;53.330;9.876;2022-07-23T12:37:33;136250.38;;;20.50;100.00
7309;BME280;3695;53.330;9.876;2022-07-23T12:40:25;136465.69;;;20.53;100.00
7309;BME280;3695;53.330;9.876;2022-07-23T12:42:54;135935.34;;;20.31;100.00
7309;BME280;3695;53.330;9.876;2022-07-23T12:45:21;134662.72;;;19.95;100.00
7309;BME280;3695;53.330;9.876;2022-07-23T12:47:56;132648.84;;;19.44;100.00
7309;BME280;3695;53.330;9.876;2022-07-23T12:50:34;130099.00;;;18.74;100.00
7309;BME280;3695;53.330;9.876;2022-07-23T12:53:06;131357.69;;;19.15;100.00
7309;BME280;3695;53.330;9.876;2022-07-23T12:55:33;133444.75;;;19.74;100.00
7309;BME280;3695;53.330;9.876;2022-07-23T12:58:04;133481.50;;;19.70;100.00
7309;BME280;3695;53.330;9.876;2022-07-23T13:00:31;132015.03;;;19.28;100.00
7309;BME280;3695;53.330;9.876;2022-07-23T13:02:58;133400.06;;;19.65;100.00
7309;BME280;3695;53.330;9.876;2022-07-23T13:05:24;133347.91;;;19.64;100.00
7309;BME280;3695;53.330;9.876;2022-07-23T13:07:52;133775.06;;;19.74;100.00
7309;BME280;3695;53.330;9.876;2022-07-23T13:10:18;133726.84;;;19.71;100.00
7309;BME280;3695;53.330;9.876;2022-07-23T13:12:45;134231.28;;;19.87;100.00
7309;BME280;3695;53.330;9.876;2022-07-23T13:15:11;133631.50;;;19.65;100.00